createdAt,value
2023-03-26T00:00:44.216Z,1.75
2023-03-26T00:03:14.806Z,1.83
2023-03-26T00:05:41.410Z,1.58
2023-03-26T00:08:11.498Z,1.80
2023-03-26T00:10:40.117Z,1.77
2023-03-26T00:13:07.315Z,1.70
2023-03-26T00:15:35.321Z,1.65
2023-03-26T00:18:02.060Z,1.77
2023-03-26T00:20:30.232Z,1.95
2023-03-26T00:22:56.675Z,1.65
2023-03-26T00:25:23.720Z,1.60
2023-03-26T00:27:50.579Z,1.42
2023-03-26T00:30:17.145Z,1.77
2023-03-26T00:32:44.796Z,1.75
2023-03-26T00:35:20.792Z,1.80
2023-03-26T00:37:47.838Z,1.92
2023-03-26T00:40:14.625Z,1.90
2023-03-26T00:42:42.521Z,2.03
2023-03-26T00:45:09.459Z,1.83
2023-03-26T00:47:36.546Z,1.70
2023-03-26T00:50:04.284Z,1.45
2023-03-26T00:52:31.746Z,1.92
2023-03-26T00:54:58.189Z,1.73
2023-03-26T00:57:35.963Z,1.77
2023-03-26T01:00:16.943Z,1.70
2023-03-26T01:02:46.938Z,1.60
2023-03-26T01:05:35.224Z,1.67
2023-03-26T01:08:32.776Z,2.05
2023-03-26T01:11:05.188Z,1.83
2023-03-26T01:13:35.762Z,1.70
2023-03-26T01:16:02.954Z,1.80
2023-03-26T01:18:40.874Z,1.58
2023-03-26T01:21:09.600Z,1.88
2023-03-26T01:23:44.201Z,2.03
2023-03-26T01:28:43.012Z,1.98
2023-03-26T01:31:29.795Z,1.83
2023-03-26T01:34:04.200Z,1.67
2023-03-26T01:36:47.662Z,1.88
2023-03-26T01:39:33.295Z,2.78
2023-03-26T01:42:08.395Z,1.80
2023-03-26T01:44:38.308Z,1.75
2023-03-26T01:47:06.289Z,2.10
2023-03-26T01:49:32.798Z,2.00
2023-03-26T01:51:59.385Z,2.40
2023-03-26T01:54:29.100Z,1.67
2023-03-26T01:57:18.815Z,1.85
2023-03-26T02:00:16.320Z,1.92
2023-03-26T02:03:05.737Z,2.03
2023-03-26T02:05:39.069Z,2.10
2023-03-26T02:08:35.866Z,2.08
2023-03-26T02:11:11.547Z,2.85
2023-03-26T02:13:44.260Z,2.20
2023-03-26T02:16:16.691Z,2.22
2023-03-26T02:18:45.002Z,2.47
2023-03-26T02:21:13.021Z,2.65
2023-03-26T02:23:46.606Z,2.38
2023-03-26T02:26:16.230Z,1.87
2023-03-26T02:28:42.721Z,2.10
2023-03-26T02:31:11.094Z,2.05
2023-03-26T02:33:37.675Z,2.13
2023-03-26T02:36:04.535Z,2.15
2023-03-26T02:38:35.224Z,1.67
2023-03-26T02:41:02.576Z,1.77
2023-03-26T02:43:29.299Z,1.65
2023-03-26T02:45:56.236Z,2.10
2023-03-26T02:48:23.087Z,2.17
2023-03-26T02:50:54.457Z,2.00
2023-03-26T02:53:21.909Z,2.10
2023-03-26T02:55:48.396Z,1.80
2023-03-26T02:58:17.421Z,2.13
2023-03-26T03:00:46.779Z,1.73
2023-03-26T03:03:14.267Z,2.08
2023-03-26T03:05:43.025Z,2.00
2023-03-26T03:08:10.300Z,2.50
2023-03-26T03:10:37.863Z,1.77
2023-03-26T03:13:07.666Z,2.58
2023-03-26T03:15:35.045Z,2.00
2023-03-26T03:18:02.316Z,2.17
2023-03-26T03:20:30.299Z,2.13
2023-03-26T03:22:56.837Z,2.20
2023-03-26T03:25:23.409Z,1.83
2023-03-26T03:27:50.204Z,2.00
2023-03-26T03:30:16.686Z,2.95
2023-03-26T03:32:43.168Z,2.67
2023-03-26T03:35:09.609Z,2.30
2023-03-26T03:37:36.050Z,2.40
2023-03-26T03:40:03.989Z,2.17
2023-03-26T03:42:30.470Z,2.65
2023-03-26T03:44:56.856Z,2.83
2023-03-26T03:47:23.494Z,2.65
2023-03-26T03:49:50.309Z,2.20
2023-03-26T03:52:18.132Z,2.85
2023-03-26T03:54:44.600Z,2.90
2023-03-26T03:57:11.070Z,3.97
2023-03-26T03:59:37.533Z,2.90
2023-03-26T04:02:04.015Z,2.83
2023-03-26T04:04:30.570Z,2.83
2023-03-26T04:06:57.032Z,2.63
2023-03-26T04:09:23.469Z,2.85
2023-03-26T04:11:51.115Z,2.72
2023-03-26T04:14:17.549Z,2.45
2023-03-26T04:16:43.996Z,3.20
2023-03-26T04:19:10.444Z,2.85
2023-03-26T04:21:37.697Z,3.00
2023-03-26T04:24:05.472Z,2.25
2023-03-26T04:26:31.968Z,2.63
2023-03-26T04:29:05.114Z,2.70
2023-03-26T04:31:31.984Z,2.67
2023-03-26T04:34:08.012Z,2.60
2023-03-26T04:36:35.590Z,1.92
2023-03-26T04:39:05.057Z,2.35
2023-03-26T04:41:32.420Z,2.40
2023-03-26T04:44:01.921Z,2.38
2023-03-26T04:46:33.279Z,2.20
2023-03-26T04:49:00.669Z,2.10
2023-03-26T04:51:34.943Z,2.35
2023-03-26T04:54:02.608Z,2.05
2023-03-26T04:56:51.815Z,2.35
2023-03-26T04:59:26.014Z,2.90
2023-03-26T05:01:53.497Z,2.38
2023-03-26T05:04:20.012Z,2.17
2023-03-26T05:06:47.309Z,3.15
2023-03-26T05:09:14.358Z,2.25
2023-03-26T05:11:40.965Z,3.10
2023-03-26T05:14:07.819Z,2.20
2023-03-26T05:16:35.944Z,2.15
2023-03-26T05:19:02.467Z,3.00
2023-03-26T05:21:28.951Z,2.55
2023-03-26T05:23:55.418Z,4.03
2023-03-26T05:26:21.862Z,3.30
2023-03-26T05:28:48.444Z,3.08
2023-03-26T05:31:16.836Z,2.60
2023-03-26T05:33:43.394Z,2.45
2023-03-26T05:36:15.374Z,2.85
2023-03-26T05:38:47.234Z,2.50
2023-03-26T05:41:14.088Z,2.42
2023-03-26T05:43:40.743Z,1.80
2023-03-26T05:46:08.122Z,2.40
2023-03-26T05:48:34.668Z,2.58
2023-03-26T05:51:01.518Z,2.63
2023-03-26T05:53:28.490Z,3.15
2023-03-26T05:55:58.023Z,2.60
2023-03-26T05:58:26.155Z,2.55
2023-03-26T06:01:05.878Z,2.40
2023-03-26T06:03:33.499Z,3.30
2023-03-26T06:06:00.139Z,3.22
2023-03-26T06:08:26.762Z,3.05
2023-03-26T06:11:07.967Z,2.92
2023-03-26T06:13:34.539Z,2.88
2023-03-26T06:16:01.054Z,2.78
2023-03-26T06:18:27.599Z,2.53
2023-03-26T06:20:54.480Z,2.50
2023-03-26T06:23:21.363Z,2.45
2023-03-26T06:25:47.800Z,3.00
2023-03-26T06:28:15.363Z,2.63
2023-03-26T06:30:41.794Z,2.25
2023-03-26T06:33:08.647Z,3.90
2023-03-26T06:35:35.330Z,2.30
2023-03-26T06:38:02.179Z,2.42
2023-03-26T06:40:28.965Z,2.60
2023-03-26T06:43:08.504Z,2.70
2023-03-26T06:45:37.225Z,2.90
2023-03-26T06:48:04.494Z,2.40
2023-03-26T06:50:32.254Z,2.42
2023-03-26T06:52:58.964Z,2.22
2023-03-26T06:55:25.513Z,2.70
2023-03-26T06:57:53.510Z,2.95
2023-03-26T07:00:21.060Z,2.70
2023-03-26T07:02:47.852Z,3.15
2023-03-26T07:05:14.690Z,2.78
2023-03-26T07:07:46.710Z,2.08
2023-03-26T07:10:14.097Z,2.15
2023-03-26T07:12:42.332Z,2.00
2023-03-26T07:15:10.167Z,2.35
2023-03-26T07:17:36.923Z,2.08
2023-03-26T07:20:05.482Z,2.70
2023-03-26T07:22:32.469Z,2.28
2023-03-26T07:24:59.288Z,3.58
2023-03-26T07:27:46.882Z,2.47
2023-03-26T07:30:31.650Z,2.72
2023-03-26T07:33:01.601Z,2.88
2023-03-26T07:35:53.136Z,2.22
2023-03-26T07:38:50.668Z,2.58
2023-03-26T07:41:50.187Z,2.72
2023-03-26T07:44:25.335Z,2.40
2023-03-26T07:46:53.339Z,2.17
2023-03-26T07:49:20.443Z,1.90
2023-03-26T07:51:48.282Z,2.00
2023-03-26T07:54:15.439Z,2.33
2023-03-26T07:56:59.326Z,2.70
2023-03-26T07:59:47.880Z,2.22
2023-03-26T08:02:38.954Z,2.58
2023-03-26T08:05:19.604Z,2.42
2023-03-26T08:08:02.847Z,1.85
2023-03-26T08:10:42.310Z,2.40
2023-03-26T08:13:25.607Z,1.80
2023-03-26T08:16:29.648Z,2.15
2023-03-26T08:19:12.775Z,1.83
2023-03-26T08:21:48.021Z,2.25
2023-03-26T08:24:27.128Z,2.25
2023-03-26T08:27:16.023Z,2.00
2023-03-26T08:30:17.387Z,2.15
2023-03-26T08:32:52.942Z,2.28
2023-03-26T08:35:19.411Z,1.75
2023-03-26T08:37:45.905Z,2.13
2023-03-26T08:40:16.753Z,1.80
2023-03-26T08:43:14.745Z,1.45
2023-03-26T08:45:59.770Z,1.80
2023-03-26T08:48:53.447Z,1.67
2023-03-26T08:51:38.189Z,2.00
2023-03-26T08:54:10.834Z,2.40
2023-03-26T08:56:59.550Z,1.60
2023-03-26T09:00:02.413Z,2.15
2023-03-26T09:03:00.603Z,2.72
2023-03-26T09:05:49.193Z,1.45
2023-03-26T09:08:37.870Z,2.25
2023-03-26T09:11:32.539Z,2.30
2023-03-26T09:14:13.931Z,2.08
2023-03-26T09:16:53.464Z,2.03
2023-03-26T09:19:22.833Z,1.60
2023-03-26T09:22:10.869Z,1.58
2023-03-26T09:25:02.981Z,1.63
2023-03-26T09:28:05.794Z,2.63
2023-03-26T09:31:12.788Z,1.85
2023-03-26T09:34:00.315Z,1.73
2023-03-26T09:36:54.633Z,1.58
2023-03-26T09:39:42.019Z,1.30
2023-03-26T09:42:11.794Z,1.55
2023-03-26T09:44:46.781Z,1.60
2023-03-26T09:47:50.675Z,1.50
2023-03-26T09:50:29.520Z,1.30
2023-03-26T09:53:29.349Z,1.50
2023-03-26T09:56:16.205Z,1.40
2023-03-26T09:59:01.249Z,1.50
2023-03-26T10:01:40.593Z,1.63
2023-03-26T10:04:38.506Z,1.85
2023-03-26T10:07:23.302Z,1.55
2023-03-26T10:12:46.069Z,1.77
2023-03-26T10:15:31.856Z,1.73
2023-03-26T10:18:27.737Z,1.38
2023-03-26T10:21:05.990Z,1.38
2023-03-26T10:23:47.641Z,1.52
2023-03-26T10:26:41.913Z,1.52
2023-03-26T10:29:34.264Z,1.50
2023-03-26T10:32:17.673Z,1.75
2023-03-26T10:34:56.479Z,1.35
2023-03-26T10:38:08.334Z,1.40
2023-03-26T10:40:45.574Z,1.80
2023-03-26T10:43:12.495Z,1.40
2023-03-26T10:45:59.759Z,1.27
2023-03-26T10:48:56.567Z,1.45
2023-03-26T10:51:34.921Z,1.42
2023-03-26T10:54:12.913Z,1.33
2023-03-26T10:56:46.878Z,1.25
2023-03-26T10:59:15.845Z,1.73
2023-03-26T11:01:57.528Z,1.52
2023-03-26T11:04:54.926Z,1.50
2023-03-26T11:07:36.932Z,1.23
2023-03-26T11:10:13.018Z,1.88
2023-03-26T11:13:08.768Z,1.73
2023-03-26T11:15:46.746Z,1.45
2023-03-26T11:18:19.437Z,1.10
2023-03-26T11:20:51.060Z,1.13
2023-03-26T11:23:41.032Z,1.10
2023-03-26T11:26:10.256Z,1.30
2023-03-26T11:29:03.128Z,1.30
2023-03-26T11:31:43.696Z,1.10
2023-03-26T11:34:15.762Z,1.45
2023-03-26T11:36:50.613Z,2.08
2023-03-26T11:39:29.614Z,1.55
2023-03-26T11:42:06.800Z,1.15
2023-03-26T11:44:56.437Z,1.40
2023-03-26T11:47:52.904Z,1.00
2023-03-26T11:50:30.582Z,1.02
2023-03-26T11:53:03.312Z,1.10
2023-03-26T11:55:31.333Z,1.52
2023-03-26T11:58:00.138Z,0.60
2023-03-26T12:00:28.597Z,0.77
2023-03-26T12:02:59.273Z,1.63
2023-03-26T12:05:31.440Z,1.13
2023-03-26T12:08:19.703Z,1.02
2023-03-26T12:10:58.362Z,1.30
2023-03-26T12:13:44.733Z,1.15
2023-03-26T12:16:16.169Z,0.93
2023-03-26T12:18:44.488Z,1.25
2023-03-26T12:21:16.812Z,1.50
2023-03-26T12:24:04.453Z,1.00
2023-03-26T12:26:49.000Z,1.10
2023-03-26T12:29:17.830Z,1.17
2023-03-26T12:31:56.250Z,1.50
2023-03-26T12:34:35.521Z,1.10
2023-03-26T12:37:03.597Z,1.05
2023-03-26T12:40:07.270Z,1.52
2023-03-26T12:44:47.787Z,1.20
2023-03-26T12:45:14.907Z,1.40
2023-03-26T12:47:59.882Z,1.48
2023-03-26T12:50:42.748Z,1.00
2023-03-26T12:53:42.119Z,1.05
2023-03-26T12:56:36.871Z,1.23
2023-03-26T12:59:15.885Z,1.15
2023-03-26T13:01:50.604Z,1.00
2023-03-26T13:04:17.178Z,0.98
2023-03-26T13:07:10.866Z,1.00
2023-03-26T13:10:01.374Z,0.95
2023-03-26T13:12:40.965Z,1.40
2023-03-26T13:15:13.676Z,1.40
2023-03-26T13:17:47.146Z,1.55
2023-03-26T13:20:28.164Z,1.10
2023-03-26T13:23:08.180Z,0.90
2023-03-26T13:25:48.744Z,1.00
2023-03-26T13:28:42.139Z,1.10
2023-03-26T13:31:46.451Z,1.38
2023-03-26T13:34:27.599Z,1.02
2023-03-26T13:37:14.356Z,1.33
2023-03-26T13:39:55.516Z,1.20
2023-03-26T13:42:50.246Z,1.10
2023-03-26T13:45:59.078Z,1.20
2023-03-26T13:48:33.615Z,1.40
2023-03-26T13:51:11.607Z,1.30
2023-03-26T13:53:47.302Z,1.25
2023-03-26T13:56:19.834Z,1.17
2023-03-26T13:58:49.999Z,1.17
2023-03-26T14:01:21.901Z,1.08
2023-03-26T14:03:55.378Z,1.17
2023-03-26T14:06:31.947Z,0.90
2023-03-26T14:09:15.929Z,1.63
2023-03-26T14:11:58.010Z,1.15
2023-03-26T14:14:56.489Z,1.27
2023-03-26T14:17:31.341Z,0.90
2023-03-26T14:20:27.083Z,0.80
2023-03-26T14:23:27.742Z,1.17
2023-03-26T14:26:45.509Z,1.00
2023-03-26T14:29:18.649Z,1.50
2023-03-26T14:32:10.575Z,1.00
2023-03-26T14:34:42.691Z,1.13
2023-03-26T14:37:36.777Z,1.10
2023-03-26T14:40:21.399Z,1.38
2023-03-26T14:43:09.698Z,1.20
2023-03-26T14:45:57.363Z,1.15
2023-03-26T14:48:43.566Z,1.23
2023-03-26T14:51:47.213Z,0.93
2023-03-26T14:54:19.196Z,1.23
2023-03-26T14:57:30.208Z,1.10
2023-03-26T15:00:32.143Z,1.05
2023-03-26T15:03:34.597Z,1.20
2023-03-26T15:06:38.039Z,0.98
2023-03-26T15:09:49.344Z,1.52
2023-03-26T15:12:24.769Z,0.93
2023-03-26T15:15:11.122Z,0.90
2023-03-26T15:18:08.576Z,1.00
2023-03-26T15:20:57.022Z,1.05
2023-03-26T15:23:40.136Z,0.93
2023-03-26T15:26:41.621Z,1.90
2023-03-26T15:29:27.077Z,1.35
2023-03-26T15:32:22.283Z,1.13
2023-03-26T15:35:27.673Z,1.50
2023-03-26T15:38:12.206Z,1.10
2023-03-26T15:41:09.309Z,1.00
2023-03-26T15:44:22.527Z,1.55
2023-03-26T15:47:26.373Z,2.08
2023-03-26T15:50:18.973Z,2.40
2023-03-26T15:53:23.566Z,2.28
2023-03-26T15:56:25.436Z,1.50
2023-03-26T15:59:16.194Z,1.30
2023-03-26T16:01:50.741Z,1.05
2023-03-26T16:04:37.677Z,1.00
2023-03-26T16:07:31.659Z,1.58
2023-03-26T16:10:16.811Z,1.17
2023-03-26T16:12:55.876Z,1.75
2023-03-26T16:15:27.516Z,1.25
2023-03-26T16:18:15.371Z,1.10
2023-03-26T16:20:46.691Z,1.40
2023-03-26T16:23:31.921Z,2.25
2023-03-26T16:26:09.362Z,1.75
2023-03-26T16:28:56.885Z,1.25
2023-03-26T16:31:38.477Z,1.42
2023-03-26T16:34:07.132Z,1.20
2023-03-26T16:36:38.942Z,0.90
2023-03-26T16:39:05.550Z,1.35
2023-03-26T16:41:50.093Z,1.40
2023-03-26T16:44:43.399Z,1.90
2023-03-26T16:47:50.319Z,1.50
2023-03-26T16:50:46.231Z,1.55
2023-03-26T16:53:22.071Z,1.08
2023-03-26T16:56:02.526Z,1.70
2023-03-26T16:59:09.389Z,2.15
2023-03-26T17:01:47.115Z,1.30
2023-03-26T17:04:27.980Z,1.05
2023-03-26T17:07:13.928Z,1.23
2023-03-26T17:10:08.890Z,2.00
2023-03-26T17:12:49.409Z,1.33
2023-03-26T17:15:36.730Z,1.15
2023-03-26T17:18:27.621Z,2.00
2023-03-26T17:21:15.569Z,1.15
2023-03-26T17:24:15.395Z,1.00
2023-03-26T17:27:04.577Z,1.33
2023-03-26T17:30:22.305Z,0.90
2023-03-26T17:32:54.251Z,1.42
2023-03-26T17:35:46.424Z,2.20
2023-03-26T17:38:16.113Z,1.58
2023-03-26T17:40:55.201Z,1.40
2023-03-26T17:43:47.027Z,1.45
2023-03-26T17:46:19.298Z,1.02
2023-03-26T17:48:50.217Z,1.20
2023-03-26T17:51:31.691Z,1.25
2023-03-26T17:53:59.618Z,1.15
2023-03-26T17:56:29.678Z,1.08
2023-03-26T17:59:11.455Z,1.30
2023-03-26T18:01:42.047Z,1.67
2023-03-26T18:04:19.516Z,1.90
2023-03-26T18:07:18.381Z,1.10
2023-03-26T18:10:17.604Z,1.20
2023-03-26T18:12:53.146Z,1.40
2023-03-26T18:15:32.330Z,1.20
2023-03-26T18:18:13.395Z,1.52
2023-03-26T18:20:43.856Z,1.00
2023-03-26T18:23:20.364Z,1.20
2023-03-26T18:25:56.382Z,1.17
2023-03-26T18:28:31.457Z,1.17
2023-03-26T18:31:08.323Z,1.00
2023-03-26T18:33:43.716Z,0.90
2023-03-26T18:36:11.508Z,1.58
2023-03-26T18:38:39.495Z,0.93
2023-03-26T18:41:15.224Z,1.00
2023-03-26T18:46:13.491Z,1.33
2023-03-26T18:48:40.410Z,1.00
2023-03-26T18:51:07.655Z,1.58
2023-03-26T18:53:52.396Z,1.00
2023-03-26T18:56:31.850Z,2.00
2023-03-26T18:58:59.769Z,1.70
2023-03-26T19:01:31.955Z,1.42
2023-03-26T19:04:03.498Z,1.90
2023-03-26T19:06:35.765Z,1.48
2023-03-26T19:09:23.725Z,1.45
2023-03-26T19:11:57.129Z,1.20
2023-03-26T19:14:25.217Z,1.83
2023-03-26T19:16:56.520Z,1.23
2023-03-26T19:19:28.184Z,1.00
2023-03-26T19:21:58.401Z,1.30
2023-03-26T19:24:27.028Z,1.25
2023-03-26T19:26:53.880Z,0.70
2023-03-26T19:29:27.135Z,1.00
2023-03-26T19:32:01.540Z,0.77
2023-03-26T19:34:38.940Z,0.80
2023-03-26T19:37:26.414Z,0.80
2023-03-26T19:39:55.429Z,1.40
2023-03-26T19:42:27.094Z,0.80
2023-03-26T19:45:17.518Z,1.35
2023-03-26T19:47:52.138Z,1.27
2023-03-26T19:50:27.913Z,1.08
2023-03-26T19:53:17.708Z,1.33
2023-03-26T19:56:09.618Z,1.08
2023-03-26T19:58:36.487Z,1.77
2023-03-26T20:01:04.194Z,1.00
2023-03-26T20:03:39.069Z,1.67
2023-03-26T20:06:07.022Z,1.00
2023-03-26T20:08:33.376Z,1.42
2023-03-26T20:11:00.106Z,1.20
2023-03-26T20:13:26.629Z,1.45
2023-03-26T20:16:25.137Z,1.55
2023-03-26T20:18:51.625Z,1.40
2023-03-26T20:21:18.275Z,1.80
2023-03-26T20:23:45.234Z,1.35
2023-03-26T20:26:13.919Z,1.55
2023-03-26T20:28:47.580Z,1.75
2023-03-26T20:33:43.548Z,1.58
2023-03-26T20:36:13.314Z,1.55
2023-03-26T20:38:40.956Z,2.00
2023-03-26T20:41:11.975Z,1.92
2023-03-26T20:43:38.405Z,1.63
2023-03-26T20:46:05.140Z,1.75
2023-03-26T20:48:31.615Z,1.30
2023-03-26T20:50:58.117Z,1.80
2023-03-26T20:53:24.932Z,0.85
2023-03-26T20:55:51.755Z,1.52
2023-03-26T20:58:30.842Z,1.40
2023-03-26T21:01:02.082Z,1.05
2023-03-26T21:03:28.815Z,1.15
2023-03-26T21:05:59.701Z,1.88
2023-03-26T21:08:30.176Z,1.50
2023-03-26T21:11:01.939Z,1.13
2023-03-26T21:13:39.589Z,0.93
2023-03-26T21:16:08.002Z,1.33
2023-03-26T21:18:34.856Z,1.10
2023-03-26T21:21:21.057Z,1.60
2023-03-26T21:23:59.305Z,1.35
2023-03-26T21:26:41.788Z,1.65
2023-03-26T21:29:08.773Z,1.60
2023-03-26T21:31:37.890Z,1.60
2023-03-26T21:34:05.422Z,1.20
2023-03-26T21:36:32.333Z,1.08
2023-03-26T21:38:59.579Z,1.30
2023-03-26T21:41:36.492Z,1.45
2023-03-26T21:44:03.691Z,1.38
2023-03-26T21:46:31.796Z,1.10
2023-03-26T21:48:58.637Z,1.45
2023-03-26T21:51:25.398Z,0.80
2023-03-26T21:53:52.158Z,1.50
2023-03-26T21:56:35.114Z,1.42
2023-03-26T21:59:23.965Z,1.17
2023-03-26T22:02:00.358Z,1.13
2023-03-26T22:04:54.297Z,1.45
2023-03-26T22:07:32.303Z,1.60
2023-03-26T22:09:58.715Z,1.20
2023-03-26T22:12:25.624Z,1.50
2023-03-26T22:14:52.456Z,1.20
2023-03-26T22:17:19.474Z,1.20
2023-03-26T22:19:45.986Z,1.00
2023-03-26T22:22:12.486Z,1.00
2023-03-26T22:24:39.071Z,1.10
2023-03-26T22:27:05.675Z,1.00
2023-03-26T22:29:32.434Z,1.00
2023-03-26T22:31:58.893Z,0.65
2023-03-26T22:34:25.923Z,0.88
2023-03-26T22:36:53.232Z,0.70
2023-03-26T22:39:19.743Z,0.60
2023-03-26T22:41:46.225Z,0.85
2023-03-26T22:44:19.786Z,1.33
2023-03-26T22:46:48.925Z,1.05
2023-03-26T22:49:15.861Z,0.80
2023-03-26T22:51:42.328Z,0.70
2023-03-26T22:54:09.466Z,0.82
2023-03-26T22:56:36.381Z,0.70
2023-03-26T22:59:03.799Z,1.13
2023-03-26T23:01:30.538Z,1.20
2023-03-26T23:03:57.601Z,0.90
2023-03-26T23:06:24.147Z,1.05
2023-03-26T23:08:51.234Z,0.90
2023-03-26T23:11:20.502Z,1.02
2023-03-26T23:13:47.716Z,0.80
2023-03-26T23:16:15.792Z,1.40
2023-03-26T23:18:42.484Z,1.00
2023-03-26T23:21:14.434Z,1.25
2023-03-26T23:23:40.837Z,1.10
2023-03-26T23:26:07.376Z,1.10
2023-03-26T23:28:35.252Z,1.25
2023-03-26T23:31:04.926Z,0.88
2023-03-26T23:33:35.229Z,1.10
2023-03-26T23:36:09.063Z,0.80
2023-03-26T23:38:44.102Z,0.73
2023-03-26T23:41:14.975Z,1.20
2023-03-26T23:43:54.257Z,1.00
2023-03-26T23:46:31.037Z,0.98
2023-03-26T23:48:59.655Z,1.17
2023-03-26T23:51:26.330Z,1.00
2023-03-26T23:53:53.387Z,0.60
2023-03-26T23:56:20.128Z,1.23
2023-03-26T23:58:48.608Z,0.80
